KLWT/LWT METAR and TAF weather

Enter ICAO airport designator
Station Type Date Time Source
KLWT METAR 2019/10/21 02:54 UTC NOAA

KLWT 210254Z AUTO 17006KT 10SM BKN070 01/M03 A2991 RMK AO2 SLP148 T00111033 58001 $


Station Type Date Time Source
KLWT Decoded METAR 2019/10/21 02:54 UTC NOAA

LEWISTOWN MUNICIPAL AIRPORT , MT, United States (KLWT) 47-03N 109-27W
Oct 20, 2019 - 10:54 PM EDT / 2019.10.21 0254 UTC
Wind: from the S (170 degrees) at 7 MPH (6 KT):0
Visibility: 10 mile(s):0
Sky conditions: mostly cloudy
Temperature: 34.0 F (1.1 C)
Windchill: 28 F (-2 C):1
Dew Point: 26.1 F (-3.3 C)
Relative Humidity: 72%
Pressure (altimeter): 29.91 in. Hg (1012 hPa)
Pressure tendency: 0.00 inches (0.1 hPa) lower than three hours ago
ob: KLWT 210254Z AUTO 17006KT 10SM BKN070 01/M03 A2991 RMK AO2 SLP148 T00111033 58001
cycle: 3

Station Type Date Time Source
KLWT TAF 2019/10/20 18:42 UTC NOAA

TAF KLWT 201739Z 2018/2118 VRB06KT P6SM SCT025 OVC040
TEMPO 2018/2021 SCT010 BKN015 OVC025
FM210200 VRB05KT P6SM SCT050 BKN090
FM210600 VRB05KT P6SM SCT090 BKN150

Example: see airport list